Time;durP1;ratioP1;P1;durP2;ratioP2;P2;SDS_P1;SDS_P2;PMS_P1;PMS_P2;Temp;Humidity;BMP_temperature;BMP_pressure;BME280_temperature;BME280_humidity;BME280_pressure;Samples;Min_cycle;Max_cycle;Signal;HPM_P1;HPM_P2
2023/03/07 00:00:14;;;;;;;104.20;22.47;;;0.20;99.90;;;;;;6341202;22;20168;-90
2023/03/07 00:02:41;;;;;;;82.93;18.23;;;0.20;99.90;;;;;;6341125;22;20166;-90
2023/03/07 00:05:08;;;;;;;121.23;21.30;;;0.20;99.90;;;;;;6340684;22;20166;-90
2023/03/07 00:07:35;;;;;;;79.87;22.13;;;0.20;99.90;;;;;;6340837;22;20624;-90
2023/03/07 00:10:02;;;;;;;99.07;21.00;;;0.20;99.90;;;;;;6340605;22;20189;-89
2023/03/07 00:12:30;;;;;;;102.77;19.77;;;0.10;99.90;;;;;;6341053;22;20252;-89
2023/03/07 00:14:57;;;;;;;90.30;18.20;;;0.10;99.90;;;;;;6340426;22;20166;-90
2023/03/07 00:17:24;;;;;;;96.03;20.47;;;0.10;99.90;;;;;;6341140;22;20257;-90
2023/03/07 00:19:51;;;;;;;140.77;24.93;;;0.10;99.90;;;;;;6340982;22;20176;-89
2023/03/07 00:22:17;;;;;;;90.30;20.57;;;0.10;99.90;;;;;;6341149;22;20496;-89
2023/03/07 00:24:44;;;;;;;107.30;20.00;;;0.10;99.90;;;;;;6340982;22;20170;-89
2023/03/07 00:27:11;;;;;;;116.80;19.57;;;0.10;99.90;;;;;;6340948;22;20185;-90
2023/03/07 00:29:39;;;;;;;93.03;18.53;;;0.10;99.90;;;;;;6340403;22;20170;-89
2023/03/07 00:32:07;;;;;;;97.27;18.17;;;0.10;99.90;;;;;;6340877;22;20190;-90
2023/03/07 00:34:33;;;;;;;122.03;19.80;;;0.00;99.90;;;;;;6340798;22;20172;-90
2023/03/07 00:37:00;;;;;;;113.50;16.63;;;0.00;99.90;;;;;;6341012;22;20166;-90
2023/03/07 00:39:27;;;;;;;129.47;18.50;;;-0.10;99.90;;;;;;6340494;22;20199;-90
2023/03/07 00:41:54;;;;;;;95.40;17.93;;;-0.10;99.90;;;;;;6340802;22;20178;-89
2023/03/07 00:44:21;;;;;;;112.80;20.07;;;-0.20;99.90;;;;;;6340576;22;20166;-89
2023/03/07 00:46:49;;;;;;;97.30;16.83;;;-0.10;99.90;;;;;;6340325;22;20169;-89
2023/03/07 00:49:16;;;;;;;121.00;19.90;;;-0.10;99.90;;;;;;6340262;22;20535;-89
2023/03/07 00:51:42;;;;;;;92.63;18.30;;;-0.10;99.90;;;;;;6340617;22;20228;-89
2023/03/07 00:54:09;;;;;;;109.67;16.63;;;-0.10;99.90;;;;;;6340773;22;20166;-89
2023/03/07 00:56:36;;;;;;;137.43;22.57;;;-0.10;99.90;;;;;;6340913;22;20656;-90
2023/03/07 00:59:03;;;;;;;123.10;17.00;;;-0.20;99.90;;;;;;6340367;22;20249;-90
2023/03/07 01:01:30;;;;;;;139.93;18.27;;;-0.20;99.90;;;;;;6340428;22;20632;-89
2023/03/07 01:03:58;;;;;;;111.43;17.63;;;-0.20;99.90;;;;;;6340341;22;20166;-89
2023/03/07 01:06:27;;;;;;;102.17;18.63;;;-0.20;99.90;;;;;;6340329;22;20174;-90
2023/03/07 01:08:55;;;;;;;81.13;16.07;;;-0.20;99.90;;;;;;6339948;22;20650;-89
2023/03/07 01:11:22;;;;;;;100.57;15.50;;;-0.30;99.90;;;;;;6340603;22;20196;-89
2023/03/07 01:13:49;;;;;;;125.20;14.47;;;-0.30;99.90;;;;;;6340065;22;20240;-89
2023/03/07 01:16:18;;;;;;;89.47;16.07;;;-0.40;99.90;;;;;;6340733;22;20172;-89
2023/03/07 01:18:48;;;;;;;151.70;17.00;;;-0.40;99.90;;;;;;6340074;22;20666;-90
2023/03/07 01:21:18;;;;;;;155.90;15.53;;;-0.40;99.90;;;;;;6340147;22;20150;-89
2023/03/07 01:23:46;;;;;;;82.97;14.90;;;-0.50;99.90;;;;;;6340621;22;20176;-89
2023/03/07 01:26:13;;;;;;;86.60;15.77;;;-0.50;99.90;;;;;;6340452;22;20166;-89
2023/03/07 01:28:41;;;;;;;126.97;18.10;;;-0.50;99.90;;;;;;6340508;22;20172;-89
2023/03/07 01:31:07;;;;;;;84.43;17.30;;;-0.50;99.90;;;;;;6339481;22;20181;-90
2023/03/07 01:33:34;;;;;;;63.00;17.47;;;-0.50;99.90;;;;;;6340175;22;20166;-90
2023/03/07 01:36:01;;;;;;;85.17;16.57;;;-0.60;99.90;;;;;;6340011;22;20488;-89
2023/03/07 01:38:32;;;;;;;64.70;14.33;;;-0.60;99.90;;;;;;6340153;22;20248;-89
2023/03/07 01:41:00;;;;;;;48.87;14.27;;;-0.70;99.90;;;;;;6339620;22;20487;-89
2023/03/07 01:43:28;;;;;;;78.33;15.30;;;-0.80;99.90;;;;;;6339380;22;20626;-88
2023/03/07 01:46:49;;;;;;;81.10;16.03;;;-0.80;99.90;;;;;;6339768;22;20170;-88
2023/03/07 01:49:20;;;;;;;54.37;13.97;;;-0.90;99.90;;;;;;6214206;23;20689;-89
2023/03/07 01:51:51;;;;;;;59.40;15.60;;;-1.00;99.90;;;;;;6213937;23;20200;-89
2023/03/07 01:54:23;;;;;;;54.87;13.97;;;-1.00;99.90;;;;;;6214039;23;20175;-89
2023/03/07 01:56:51;;;;;;;46.03;14.33;;;-1.10;99.90;;;;;;6214323;23;20169;-89
2023/03/07 01:59:24;;;;;;;58.60;15.90;;;-1.10;99.90;;;;;;6214073;23;20259;-90
2023/03/07 02:01:52;;;;;;;39.73;11.97;;;-1.20;99.90;;;;;;6213720;23;20159;-89
2023/03/07 02:04:22;;;;;;;53.20;15.07;;;-1.20;99.90;;;;;;6213802;23;20623;-89
2023/03/07 02:06:49;;;;;;;45.23;13.97;;;-1.20;99.90;;;;;;6214255;23;20645;-89
2023/03/07 02:09:21;;;;;;;37.80;11.93;;;-1.30;99.90;;;;;;6214300;23;20200;-89
2023/03/07 02:11:49;;;;;;;37.77;12.20;;;-1.30;99.90;;;;;;6214125;23;20189;-90
2023/03/07 02:14:16;;;;;;;34.83;12.60;;;-1.30;99.90;;;;;;6214074;23;20172;-89
2023/03/07 02:16:43;;;;;;;39.80;10.47;;;-1.40;99.90;;;;;;6213860;23;20168;-89
2023/03/07 02:19:25;;;;;;;21.83;8.70;;;-1.40;99.90;;;;;;6214251;23;20175;-90
2023/03/07 02:21:59;;;;;;;33.33;10.97;;;-1.50;99.90;;;;;;6214170;23;20153;-89
2023/03/07 02:24:32;;;;;;;43.87;11.57;;;-1.60;99.90;;;;;;6245315;22;20169;-89
2023/03/07 02:27:00;;;;;;;46.30;11.97;;;-1.60;99.90;;;;;;6339663;22;20150;-88
2023/03/07 02:29:27;;;;;;;40.97;13.00;;;-1.70;99.90;;;;;;6339214;22;20172;-89
2023/03/07 02:31:54;;;;;;;52.37;13.77;;;-1.70;99.90;;;;;;6339351;22;20196;-88
2023/03/07 02:34:22;;;;;;;48.10;13.07;;;-1.70;99.90;;;;;;6339263;22;20166;-89
2023/03/07 02:36:52;;;;;;;56.40;12.67;;;-1.70;93.40;;;;;;6338872;22;20477;-88
2023/03/07 02:39:22;;;;;;;44.43;13.00;;;-1.70;88.50;;;;;;6339059;22;20172;-88
2023/03/07 02:41:52;;;;;;;47.53;12.87;;;-1.70;99.90;;;;;;6339133;22;20479;-89
2023/03/07 02:44:20;;;;;;;60.70;13.47;;;-1.70;96.80;;;;;;6339036;22;20170;-90
2023/03/07 02:46:47;;;;;;;41.17;11.93;;;-1.70;93.50;;;;;;6339272;22;20165;-89
2023/03/07 02:49:14;;;;;;;35.10;12.70;;;-1.70;83.60;;;;;;6338785;22;20572;-89
2023/03/07 02:51:41;;;;;;;41.87;12.70;;;-1.70;94.10;;;;;;6338508;22;20643;-89
2023/03/07 02:54:08;;;;;;;54.83;12.20;;;-1.70;95.00;;;;;;6339416;22;20166;-91
2023/03/07 02:56:35;;;;;;;48.00;12.90;;;-1.60;53.10;;;;;;6339387;22;20162;-90
2023/03/07 02:59:02;;;;;;;79.60;12.73;;;-1.60;50.40;;;;;;6338494;22;20169;-90
2023/03/07 03:01:30;;;;;;;60.13;11.63;;;-1.60;99.90;;;;;;6338983;22;20168;-91
2023/03/07 03:03:57;;;;;;;32.40;12.20;;;-1.70;90.50;;;;;;6339108;22;20166;-91
2023/03/07 03:06:24;;;;;;;71.63;13.37;;;-1.60;99.90;;;;;;6338644;22;20494;-90
2023/03/07 03:08:50;;;;;;;55.77;12.67;;;-1.60;91.10;;;;;;6339239;22;20166;-89
2023/03/07 03:11:17;;;;;;;41.83;11.43;;;-1.60;41.90;;;;;;6339410;22;20186;-89
2023/03/07 03:13:44;;;;;;;45.57;12.53;;;-1.60;54.40;;;;;;6339064;22;20500;-89
2023/03/07 03:16:11;;;;;;;33.87;13.17;;;-1.60;95.40;;;;;;6340669;22;20241;-89
2023/03/07 03:18:39;;;;;;;56.87;14.43;;;-1.60;64.50;;;;;;6341006;22;20172;-90
2023/03/07 03:21:09;;;;;;;49.43;16.07;;;-1.60;95.60;;;;;;6340217;22;20170;-89
2023/03/07 03:23:36;;;;;;;54.27;17.60;;;-1.60;99.90;;;;;;6340862;22;20170;-89
2023/03/07 03:26:06;;;;;;;53.93;18.97;;;-1.60;99.90;;;;;;6340382;22;20228;-89
2023/03/07 03:28:34;;;;;;;49.93;17.33;;;-1.60;99.90;;;;;;6340620;22;20172;-89
2023/03/07 03:31:05;;;;;;;58.40;18.53;;;-1.50;99.90;;;;;;6340290;22;20693;-89
2023/03/07 03:33:32;;;;;;;50.47;17.53;;;-1.50;99.90;;;;;;6340767;22;20151;-89
2023/03/07 03:36:07;;;;;;;55.07;16.47;;;-1.50;99.90;;;;;;6340518;22;20170;-90
2023/03/07 03:38:33;;;;;;;57.07;16.83;;;-1.50;99.90;;;;;;6341153;22;20199;-89
2023/03/07 03:41:04;;;;;;;49.10;15.80;;;-1.50;99.90;;;;;;6340696;22;20170;-90
2023/03/07 03:43:31;;;;;;;50.73;14.70;;;-1.40;99.90;;;;;;6340769;22;20207;-89
2023/03/07 03:45:58;;;;;;;42.83;15.40;;;-1.40;99.90;;;;;;6340697;22;20166;-90
2023/03/07 03:48:26;;;;;;;43.17;15.63;;;-1.40;99.90;;;;;;6340898;22;20174;-90
2023/03/07 03:51:03;;;;;;;41.73;14.90;;;-1.40;99.90;;;;;;6339873;22;20667;-90
2023/03/07 03:53:30;;;;;;;43.57;14.30;;;-1.40;99.90;;;;;;6340550;22;20154;-89
2023/03/07 03:56:02;;;;;;;41.13;14.57;;;-1.30;99.90;;;;;;6340591;22;20165;-89
2023/03/07 03:58:29;;;;;;;42.47;15.43;;;-1.30;99.90;;;;;;6340385;22;20166;-89
2023/03/07 04:00:56;;;;;;;36.50;14.03;;;-1.30;99.90;;;;;;6340305;22;20170;-89
2023/03/07 04:03:23;;;;;;;48.20;15.63;;;-1.20;99.90;;;;;;6339706;22;20649;-89
2023/03/07 04:05:49;;;;;;;50.77;16.00;;;-1.10;99.90;;;;;;6340330;22;20157;-89
2023/03/07 04:08:18;;;;;;;46.40;14.63;;;-1.10;99.90;;;;;;6340445;22;20176;-90
2023/03/07 04:10:44;;;;;;;42.93;14.50;;;-1.10;99.90;;;;;;6339916;22;20166;-90
2023/03/07 04:13:11;;;;;;;44.63;13.63;;;-1.00;99.90;;;;;;6340219;22;20515;-89
2023/03/07 04:15:38;;;;;;;55.83;15.03;;;-1.00;99.90;;;;;;6339936;22;20157;-90
2023/03/07 04:18:05;;;;;;;54.43;15.30;;;-1.00;99.90;;;;;;6339860;22;20158;-89
2023/03/07 04:20:31;;;;;;;43.60;14.67;;;-0.90;99.90;;;;;;6340359;22;20166;-90
2023/03/07 04:22:58;;;;;;;37.67;14.20;;;-0.90;99.90;;;;;;6340090;22;20169;-89
2023/03/07 04:25:26;;;;;;;44.90;14.27;;;-0.80;99.90;;;;;;6339565;22;20623;-90
2023/03/07 04:27:53;;;;;;;70.53;19.00;;;-0.80;99.90;;;;;;6340717;22;20170;-90
2023/03/07 04:30:20;;;;;;;53.23;16.33;;;-0.80;99.90;;;;;;6340461;22;20170;-89
2023/03/07 04:32:47;;;;;;;45.30;14.60;;;-0.80;99.90;;;;;;6340445;22;20186;-89
2023/03/07 04:35:14;;;;;;;40.07;13.63;;;-0.70;99.90;;;;;;6340017;22;20165;-90
2023/03/07 04:37:40;;;;;;;43.20;12.93;;;-0.70;1.00;;;;;;6339844;22;20172;-88
2023/03/07 04:40:08;;;;;;;45.57;13.67;;;-0.60;1.00;;;;;;6339964;22;20480;-90
2023/03/07 04:42:37;;;;;;;53.23;13.87;;;-0.60;1.00;;;;;;6340251;22;20163;-90
2023/03/07 04:45:04;;;;;;;37.33;13.07;;;-0.60;1.00;;;;;;6339788;22;20697;-89
2023/03/07 04:47:31;;;;;;;45.03;13.43;;;-0.50;1.00;;;;;;6339593;22;20192;-89
2023/03/07 04:49:57;;;;;;;45.87;13.60;;;-0.50;1.00;;;;;;6339556;22;20197;-89
2023/03/07 04:52:24;;;;;;;42.67;13.33;;;-0.40;1.00;;;;;;6339696;22;20190;-89
2023/03/07 04:54:51;;;;;;;45.47;14.20;;;-0.40;1.00;;;;;;6339362;22;20173;-90
2023/03/07 04:57:18;;;;;;;44.87;14.33;;;-0.40;1.00;;;;;;6340043;22;20165;-89
2023/03/07 04:59:46;;;;;;;42.13;12.80;;;-0.40;1.00;;;;;;6339939;22;20165;-89
2023/03/07 05:02:13;;;;;;;45.77;14.47;;;-0.30;1.00;;;;;;6339663;22;20421;-89
2023/03/07 05:04:40;;;;;;;42.87;13.50;;;-0.30;1.00;;;;;;6339686;22;20168;-89
2023/03/07 05:07:07;;;;;;;45.40;14.67;;;-0.20;1.00;;;;;;6339275;22;20185;-89
2023/03/07 05:09:34;;;;;;;48.03;15.33;;;-0.20;1.00;;;;;;6338954;22;20191;-90
2023/03/07 05:12:01;;;;;;;37.00;13.40;;;-0.20;1.00;;;;;;6339409;22;20207;-89
2023/03/07 05:14:28;;;;;;;49.17;14.67;;;-0.10;1.00;;;;;;6339667;22;20158;-90
2023/03/07 05:16:56;;;;;;;55.03;15.33;;;0.00;1.00;;;;;;6339211;22;20653;-88
2023/03/07 05:19:23;;;;;;;46.07;15.10;;;0.00;1.00;;;;;;6339889;22;20166;-89
2023/03/07 05:21:50;;;;;;;46.43;16.53;;;0.10;1.00;;;;;;6339359;22;20639;-90
2023/03/07 05:24:16;;;;;;;57.70;19.77;;;0.10;1.00;;;;;;6339006;22;20645;-89
2023/03/07 05:26:43;;;;;;;49.67;18.33;;;0.10;1.00;;;;;;6339318;22;20170;-89
2023/03/07 05:29:10;;;;;;;59.90;20.10;;;0.20;1.00;;;;;;6339572;22;20166;-89
2023/03/07 05:31:37;;;;;;;57.70;19.83;;;0.20;1.00;;;;;;6339060;22;20190;-87
2023/03/07 05:34:05;;;;;;;58.37;20.47;;;0.20;1.00;;;;;;6339857;22;20166;-88
2023/03/07 05:36:32;;;;;;;56.60;19.67;;;0.30;1.00;;;;;;6339128;22;20170;-88
2023/03/07 05:38:59;;;;;;;54.97;19.57;;;0.30;1.00;;;;;;6338813;22;20166;-90
2023/03/07 05:41:25;;;;;;;51.57;18.90;;;0.40;1.00;;;;;;6339315;22;20172;-89
2023/03/07 05:43:53;;;;;;;52.43;19.63;;;0.40;1.00;;;;;;6339143;22;20170;-89
2023/03/07 05:46:20;;;;;;;53.57;19.80;;;0.50;2.70;;;;;;6339080;22;20228;-89
2023/03/07 05:48:47;;;;;;;55.43;19.87;;;0.50;26.50;;;;;;6339140;22;20174;-89
2023/03/07 05:51:15;;;;;;;63.63;22.07;;;0.60;30.10;;;;;;6339034;22;20150;-90
2023/03/07 05:53:42;;;;;;;69.37;23.20;;;0.60;52.50;;;;;;6338735;22;20277;-91
2023/03/07 05:56:09;;;;;;;62.07;21.23;;;0.70;94.80;;;;;;6339958;22;20172;-91
2023/03/07 05:58:35;;;;;;;72.50;23.60;;;0.80;99.90;;;;;;6340111;22;20173;-91
2023/03/07 06:01:03;;;;;;;76.40;24.87;;;0.80;99.90;;;;;;6340341;22;20166;-91
2023/03/07 06:03:29;;;;;;;72.03;25.00;;;0.90;99.90;;;;;;6340491;22;20624;-93
2023/03/07 06:05:56;;;;;;;62.20;21.00;;;0.90;99.90;;;;;;6340049;22;20164;-94
2023/03/07 06:08:25;;;;;;;74.93;24.07;;;0.90;99.90;;;;;;6339529;22;20242;-91
2023/03/07 06:10:53;;;;;;;66.60;23.17;;;1.00;99.90;;;;;;6339723;22;20169;-92
2023/03/07 06:13:22;;;;;;;77.43;25.47;;;1.00;99.90;;;;;;6340431;22;20182;-93
2023/03/07 06:15:50;;;;;;;62.57;23.13;;;1.10;99.90;;;;;;6339646;22;20167;-92
2023/03/07 06:18:16;;;;;;;61.73;23.93;;;1.10;99.90;;;;;;6340600;22;20177;-93
2023/03/07 06:20:43;;;;;;;59.93;22.23;;;1.20;99.90;;;;;;6341179;22;20173;-92
2023/03/07 06:23:10;;;;;;;67.43;24.03;;;1.20;99.90;;;;;;6339702;22;20493;-92
2023/03/07 06:25:38;;;;;;;68.67;24.33;;;1.30;99.90;;;;;;6339986;22;20170;-92
2023/03/07 06:28:05;;;;;;;71.57;24.90;;;1.30;99.90;;;;;;6340633;22;20249;-92
2023/03/07 06:30:32;;;;;;;66.23;23.83;;;1.40;99.90;;;;;;6340620;22;20172;-92
2023/03/07 06:32:59;;;;;;;69.30;25.43;;;1.40;1.00;;;;;;6340329;22;20222;-92
2023/03/07 06:35:26;;;;;;;69.50;25.90;;;1.40;1.00;;;;;;6339798;22;20598;-91
2023/03/07 06:37:53;;;;;;;63.47;23.77;;;1.50;1.00;;;;;;6340244;22;20193;-92
2023/03/07 06:40:20;;;;;;;67.57;25.70;;;1.60;1.00;;;;;;6340025;22;20642;-91
2023/03/07 06:42:48;;;;;;;67.93;25.43;;;1.60;1.00;;;;;;6340113;22;20625;-92
2023/03/07 06:45:15;;;;;;;63.97;24.53;;;1.70;1.00;;;;;;6340470;22;20170;-92
2023/03/07 06:47:42;;;;;;;68.07;25.57;;;1.70;1.00;;;;;;6340390;22;20496;-91
2023/03/07 06:50:09;;;;;;;70.37;29.33;;;1.80;1.00;;;;;;6341701;22;20528;-91
2023/03/07 06:52:36;;;;;;;68.43;29.90;;;1.90;1.00;;;;;;6343346;22;20192;-91
2023/03/07 06:55:03;;;;;;;66.77;27.03;;;2.00;1.00;;;;;;6343271;22;20652;-91
2023/03/07 06:57:32;;;;;;;62.40;25.20;;;2.00;1.00;;;;;;6343598;22;20172;-91
2023/03/07 07:00:00;;;;;;;81.27;32.07;;;2.10;1.00;;;;;;6342925;22;20163;-91
2023/03/07 07:02:27;;;;;;;73.17;32.67;;;2.10;1.00;;;;;;6343513;22;20250;-91
2023/03/07 07:04:54;;;;;;;61.60;27.13;;;2.20;1.00;;;;;;6343281;22;20174;-91
2023/03/07 07:07:20;;;;;;;57.63;24.00;;;2.20;1.00;;;;;;6343483;22;20169;-91
2023/03/07 07:09:47;;;;;;;72.27;31.30;;;2.20;1.00;;;;;;6343503;22;20191;-92
2023/03/07 07:12:14;;;;;;;52.63;22.53;;;2.20;1.00;;;;;;6343036;22;20184;-92
2023/03/07 07:14:41;;;;;;;55.57;24.40;;;2.20;1.00;;;;;;6343171;22;20214;-92
2023/03/07 07:17:09;;;;;;;50.17;21.67;;;2.20;1.00;;;;;;6343767;22;20170;-93
2023/03/07 07:19:36;;;;;;;67.17;25.47;;;2.20;1.00;;;;;;6343362;22;20171;-92
2023/03/07 07:22:03;;;;;;;55.57;24.90;;;2.30;1.00;;;;;;6343660;22;20261;-92
2023/03/07 07:24:30;;;;;;;68.10;27.57;;;2.30;1.00;;;;;;6343542;22;20172;-93
2023/03/07 07:26:57;;;;;;;51.57;23.23;;;2.40;1.00;;;;;;6343158;22;20251;-92
2023/03/07 07:29:24;;;;;;;59.33;26.80;;;2.40;1.00;;;;;;6343230;22;20495;-92
2023/03/07 07:31:51;;;;;;;54.63;22.30;;;2.40;1.00;;;;;;6343918;22;20166;-92
2023/03/07 07:34:19;;;;;;;47.80;21.13;;;2.40;1.00;;;;;;6343552;22;20275;-92
2023/03/07 07:36:46;;;;;;;60.07;25.27;;;2.30;1.00;;;;;;6343541;22;20188;-92
2023/03/07 07:39:14;;;;;;;48.60;21.20;;;2.30;1.00;;;;;;6343337;22;20192;-91
2023/03/07 07:41:41;;;;;;;45.60;19.70;;;2.30;1.00;;;;;;6343525;22;20168;-92
2023/03/07 07:44:08;;;;;;;45.47;18.53;;;2.30;1.00;;;;;;6343664;22;20496;-92
2023/03/07 07:46:35;;;;;;;50.93;21.87;;;2.30;1.00;;;;;;6343091;22;20270;-91
2023/03/07 07:49:01;;;;;;;47.20;20.93;;;2.20;1.00;;;;;;6342303;22;20196;-92
2023/03/07 07:51:30;;;;;;;41.07;18.87;;;2.20;1.00;;;;;;6343354;22;20156;-91
2023/03/07 07:53:56;;;;;;;40.03;18.57;;;2.20;1.00;;;;;;6342953;22;20190;-92
2023/03/07 07:56:23;;;;;;;49.33;21.63;;;2.20;99.90;;;;;;6343586;22;20167;-91
2023/03/07 07:58:50;;;;;;;55.10;25.50;;;2.30;99.90;;;;;;6342825;22;20160;-91
2023/03/07 08:01:19;;;;;;;80.47;33.67;;;2.30;99.90;;;;;;6341644;22;20204;-91
2023/03/07 08:03:47;;;;;;;108.93;40.93;;;2.30;99.90;;;;;;6341361;22;20491;-91
2023/03/07 08:06:17;;;;;;;176.33;60.70;;;2.30;99.90;;;;;;6341532;22;20170;-92
2023/03/07 08:08:45;;;;;;;91.97;41.47;;;2.30;99.90;;;;;;6341498;22;20153;-92
2023/03/07 08:11:13;;;;;;;119.40;47.67;;;2.40;99.90;;;;;;6341779;22;20174;-92
2023/03/07 08:13:40;;;;;;;42.33;20.83;;;2.50;99.90;;;;;;6341432;22;20198;-92
2023/03/07 08:16:11;;;;;;;35.67;18.40;;;2.50;99.90;;;;;;6341537;22;20166;-92
2023/03/07 08:18:37;;;;;;;42.27;20.97;;;2.50;99.90;;;;;;6341236;22;20215;-93
2023/03/07 08:21:04;;;;;;;41.33;20.87;;;2.60;99.90;;;;;;6341632;22;20188;-93
2023/03/07 08:23:31;;;;;;;39.33;19.63;;;2.70;99.90;;;;;;6341944;22;20248;-92
2023/03/07 08:26:03;;;;;;;34.13;17.23;;;2.80;99.90;;;;;;6341803;22;20168;-92
2023/03/07 08:28:30;;;;;;;39.60;19.20;;;2.90;99.90;;;;;;6341520;22;20661;-93
2023/03/07 08:30:56;;;;;;;48.13;23.10;;;3.00;69.50;;;;;;6341550;22;20168;-92
2023/03/07 08:33:23;;;;;;;34.07;16.27;;;3.10;1.00;;;;;;6341450;22;20635;-93
2023/03/07 08:35:50;;;;;;;30.37;15.93;;;3.10;1.00;;;;;;6341731;22;20495;-92
2023/03/07 08:38:18;;;;;;;28.57;15.70;;;3.10;1.00;;;;;;6341442;22;20166;-93
2023/03/07 08:40:44;;;;;;;28.87;15.27;;;3.10;1.00;;;;;;6341892;22;20557;-92
2023/03/07 08:43:12;;;;;;;25.43;13.67;;;3.10;1.00;;;;;;6341347;22;20171;-92
2023/03/07 08:45:40;;;;;;;27.53;15.27;;;3.20;1.00;;;;;;6341123;22;20185;-94
2023/03/07 08:48:08;;;;;;;31.77;17.80;;;3.30;1.00;;;;;;6341694;22;20167;-92
2023/03/07 08:50:36;;;;;;;27.73;14.93;;;3.40;1.00;;;;;;6340663;22;20522;-94
2023/03/07 08:53:03;;;;;;;29.87;16.40;;;3.40;1.00;;;;;;6341200;22;20196;-92
2023/03/07 08:55:29;;;;;;;31.60;15.77;;;3.40;1.00;;;;;;6341179;22;20189;-92
2023/03/07 08:57:56;;;;;;;28.63;16.20;;;3.50;1.00;;;;;;6341437;22;20609;-94
2023/03/07 09:00:24;;;;;;;30.47;17.47;;;3.60;1.00;;;;;;6341093;22;20166;-94
2023/03/07 09:02:53;;;;;;;28.07;15.90;;;3.60;1.00;;;;;;6341525;22;20162;-93
2023/03/07 09:05:20;;;;;;;29.43;16.57;;;3.70;1.00;;;;;;6341029;22;20176;-93
2023/03/07 09:07:46;;;;;;;28.83;16.20;;;3.80;1.00;;;;;;6341458;22;20249;-94
2023/03/07 09:10:13;;;;;;;32.43;16.20;;;3.90;1.00;;;;;;6341537;22;20249;-93
2023/03/07 09:12:40;;;;;;;31.53;16.20;;;4.00;99.90;;;;;;6341273;22;20193;-92
2023/03/07 09:15:08;;;;;;;27.03;16.13;;;4.10;99.90;;;;;;6340994;22;20194;-93
2023/03/07 09:17:36;;;;;;;28.47;15.47;;;4.20;99.90;;;;;;6340789;22;20693;-93
2023/03/07 09:20:04;;;;;;;32.40;18.10;;;4.10;99.90;;;;;;6340896;22;20166;-92
2023/03/07 09:22:31;;;;;;;29.60;17.23;;;4.10;99.90;;;;;;6341274;22;20166;-92
2023/03/07 09:24:58;;;;;;;33.33;17.10;;;4.10;99.90;;;;;;6340761;22;20620;-92
2023/03/07 09:27:25;;;;;;;34.53;18.27;;;4.20;99.90;;;;;;6341205;22;20172;-93
2023/03/07 09:29:52;;;;;;;30.27;17.17;;;4.10;99.90;;;;;;6340428;22;20196;-93
2023/03/07 09:32:19;;;;;;;33.73;18.87;;;4.10;38.50;;;;;;6341115;22;20176;-93
2023/03/07 09:34:47;;;;;;;30.10;16.80;;;4.20;99.90;;;;;;6341022;22;20189;-91
2023/03/07 09:37:14;;;;;;;30.77;18.23;;;4.20;99.90;;;;;;6341382;22;20541;-94
2023/03/07 09:39:41;;;;;;;27.20;15.30;;;4.30;99.90;;;;;;6341347;22;20170;-93
2023/03/07 09:42:21;;;;;;;29.60;16.70;;;4.30;99.90;;;;;;6340907;22;20170;-94
2023/03/07 09:45:03;;;;;;;27.03;15.53;;;4.30;14.10;;;;;;6340316;22;20614;-94
2023/03/07 09:48:03;;;;;;;27.07;16.03;;;4.30;1.00;;;;;;6340961;22;20173;-93
2023/03/07 09:50:39;;;;;;;27.17;15.60;;;4.30;1.00;;;;;;6236174;23;20517;-93
2023/03/07 09:53:18;;;;;;;26.17;14.97;;;4.30;1.00;;;;;;6245656;23;20194;-94
2023/03/07 09:55:50;;;;;;;25.80;14.67;;;4.30;1.00;;;;;;6245496;23;20174;-93
2023/03/07 09:58:20;;;;;;;25.83;13.50;;;4.30;1.00;;;;;;6245731;23;20160;-93
2023/03/07 10:00:53;;;;;;;26.67;15.63;;;4.30;1.00;;;;;;6245618;23;20183;-93
2023/03/07 10:03:31;;;;;;;27.03;16.00;;;4.30;1.00;;;;;;6245531;23;20160;-92
2023/03/07 10:06:03;;;;;;;26.37;16.27;;;4.50;1.00;;;;;;6245368;23;20632;-92
2023/03/07 10:08:32;;;;;;;29.57;17.07;;;4.50;1.00;;;;;;6245865;23;20194;-93
2023/03/07 10:11:06;;;;;;;23.97;14.67;;;4.70;1.00;;;;;;6245341;23;20174;-93
2023/03/07 10:13:44;;;;;;;24.47;14.23;;;4.70;1.00;;;;;;6244850;23;20172;-91
2023/03/07 10:16:20;;;;;;;23.43;14.00;;;4.70;1.00;;;;;;6244950;23;20157;-92
2023/03/07 10:18:57;;;;;;;23.70;14.47;;;4.80;1.00;;;;;;6245092;23;20152;-91
2023/03/07 10:21:36;;;;;;;23.17;13.97;;;4.90;1.00;;;;;;6245198;23;20164;-91
2023/03/07 10:24:33;;;;;;;24.80;14.50;;;5.00;99.90;;;;;;6244410;23;20512;-90
2023/03/07 10:27:04;;;;;;;21.53;13.33;;;5.00;99.90;;;;;;6265182;22;20167;-91
2023/03/07 10:29:37;;;;;;;24.50;15.47;;;5.10;99.90;;;;;;6339407;22;20605;-91
2023/03/07 10:32:18;;;;;;;22.50;12.40;;;5.20;99.90;;;;;;6339788;22;20157;-91
2023/03/07 10:34:47;;;;;;;22.90;13.53;;;5.20;99.90;;;;;;6339910;22;20180;-91
2023/03/07 10:37:18;;;;;;;25.27;14.67;;;5.10;99.90;;;;;;6339894;22;20274;-92
2023/03/07 10:39:50;;;;;;;23.63;14.90;;;5.00;99.90;;;;;;6340066;22;20484;-90
2023/03/07 10:42:19;;;;;;;23.73;14.57;;;5.00;99.90;;;;;;6339140;22;20166;-91
2023/03/07 10:44:47;;;;;;;21.67;13.23;;;5.00;99.90;;;;;;6339598;22;20535;-91
2023/03/07 10:47:20;;;;;;;22.17;12.43;;;5.00;99.90;;;;;;6339722;22;20173;-91
2023/03/07 10:49:48;;;;;;;22.10;13.00;;;5.00;99.90;;;;;;6338998;22;20675;-91
2023/03/07 10:52:27;;;;;;;22.87;13.57;;;5.10;99.90;;;;;;6339421;22;20167;-91
2023/03/07 10:54:54;;;;;;;25.93;15.40;;;5.40;99.90;;;;;;6339619;22;20185;-91
2023/03/07 10:57:27;;;;;;;24.03;14.20;;;5.60;99.90;;;;;;6339370;22;20219;-92
2023/03/07 10:59:54;;;;;;;23.43;13.40;;;5.80;1.30;;;;;;6340278;22;20154;-92
2023/03/07 11:02:31;;;;;;;22.23;13.40;;;5.90;1.00;;;;;;6340190;22;20168;-92
2023/03/07 11:04:58;;;;;;;25.00;15.20;;;5.80;1.00;;;;;;6340200;22;20153;-92
2023/03/07 11:07:29;;;;;;;22.97;14.67;;;5.60;1.00;;;;;;6339607;22;20169;-92
2023/03/07 11:09:57;;;;;;;18.50;11.93;;;5.40;1.00;;;;;;6340433;22;20157;-92
2023/03/07 11:12:27;;;;;;;21.77;12.87;;;5.30;1.00;;;;;;6340054;22;20190;-93
2023/03/07 11:14:56;;;;;;;21.70;12.87;;;5.20;1.00;;;;;;6340477;22;20495;-92
2023/03/07 11:17:25;;;;;;;22.03;14.03;;;5.10;1.00;;;;;;6340566;22;20167;-93
2023/03/07 11:19:54;;;;;;;23.03;14.30;;;5.10;1.00;;;;;;6339964;22;20167;-96
2023/03/07 11:22:24;;;;;;;19.67;13.17;;;5.00;1.00;;;;;;6340836;22;20175;-94
2023/03/07 11:25:13;;;;;;;26.30;14.50;;;5.00;1.00;;;;;;6340612;22;20174;-94
2023/03/07 11:27:48;;;;;;;29.63;14.90;;;5.10;13.60;;;;;;6340186;22;20478;-94
2023/03/07 11:30:21;;;;;;;23.40;12.73;;;5.40;22.40;;;;;;6340389;22;20144;-94
2023/03/07 11:32:57;;;;;;;20.80;12.77;;;5.70;1.00;;;;;;6340457;22;20150;-94
2023/03/07 11:35:29;;;;;;;20.10;12.17;;;6.00;1.00;;;;;;6340393;22;20221;-94
2023/03/07 11:38:04;;;;;;;24.77;13.13;;;6.30;1.00;;;;;;6341842;22;20161;-94
2023/03/07 11:40:39;;;;;;;16.97;10.67;;;6.60;1.00;;;;;;6341885;22;20595;-96
2023/03/07 11:43:16;;;;;;;20.03;12.57;;;6.70;99.90;;;;;;6342013;22;20153;-96
2023/03/07 11:45:51;;;;;;;19.00;12.03;;;6.80;99.90;;;;;;6342239;22;20232;-96
2023/03/07 11:48:32;;;;;;;17.63;10.63;;;6.90;99.90;;;;;;6341790;22;20156;-95
2023/03/07 11:51:02;;;;;;;20.47;12.23;;;7.00;99.90;;;;;;6341907;22;20200;-96
2023/03/07 11:53:42;;;;;;;17.33;11.20;;;7.00;99.90;;;;;;6341639;22;20166;-95
2023/03/07 11:56:24;;;;;;;16.13;10.37;;;7.00;99.90;;;;;;6341900;22;20161;-96
2023/03/07 11:59:17;;;;;;;17.70;11.23;;;7.00;99.90;;;;;;6342331;22;20518;-95
2023/03/07 12:01:51;;;;;;;16.73;10.50;;;7.00;98.50;;;;;;6342367;22;20159;-96
2023/03/07 12:04:57;;;;;;;15.07;9.63;;;7.00;99.90;;;;;;6342704;22;20149;-96
2023/03/07 12:07:48;;;;;;;13.83;8.67;;;7.10;99.90;;;;;;6332959;22;20167;-96
2023/03/07 12:10:29;;;;;;;14.67;9.13;;;7.20;2.50;;;;;;6343067;22;20212;-96
2023/03/07 12:13:11;;;;;;;18.57;10.40;;;7.00;1.00;;;;;;6343523;22;20160;-96
2023/03/07 12:15:45;;;;;;;36.70;15.97;;;7.00;1.00;;;;;;6345734;22;20178;-96
2023/03/07 12:18:26;;;;;;;13.43;8.60;;;6.90;1.00;;;;;;6348191;22;20165;-96
2023/03/07 12:21:06;;;;;;;14.03;9.40;;;7.00;99.90;;;;;;6352389;22;20209;-97
2023/03/07 12:23:38;;;;;;;16.87;10.07;;;7.20;58.90;;;;;;6354879;22;20229;-96
2023/03/07 12:26:12;;;;;;;13.00;8.97;;;7.30;1.00;;;;;;6354437;22;20154;-96
2023/03/07 12:28:47;;;;;;;12.93;9.07;;;7.40;1.00;;;;;;6354335;22;20155;-96
2023/03/07 12:31:17;;;;;;;16.00;10.57;;;7.50;1.00;;;;;;6353599;22;20154;-96
2023/03/07 12:33:53;;;;;;;14.73;9.13;;;7.80;1.00;;;;;;6355063;22;20154;-96
2023/03/07 12:36:34;;;;;;;13.37;8.37;;;8.00;1.00;;;;;;6353040;22;20173;-96
2023/03/07 12:39:09;;;;;;;13.37;8.37;;;8.10;1.00;;;;;;6351390;22;20161;-96
2023/03/07 12:41:47;;;;;;;13.23;9.13;;;8.10;1.00;;;;;;6349433;22;20161;-95
2023/03/07 12:44:23;;;;;;;15.00;9.27;;;8.20;1.00;;;;;;6349934;22;20158;-96
2023/03/07 12:46:57;;;;;;;12.73;8.10;;;8.30;1.00;;;;;;6347311;22;20181;-96